Time;durP1;ratioP1;P1;durP2;ratioP2;P2;SDS_P1;SDS_P2;PMS_P1;PMS_P2;Temp;Humidity;BMP_temperature;BMP_pressure;BME280_temperature;BME280_humidity;BME280_pressure;Samples;Min_cycle;Max_cycle;Signal;HPM_P1;HPM_P2
2023/10/03 00:00:22;;;;;;;10.98;8.57;;;;;;;;;;5093456;28;20123;-41
2023/10/03 00:02:55;;;;;;;8.65;5.78;;;;;;;;;;5088676;28;20028;-51
2023/10/03 00:05:26;;;;;;;8.30;4.95;;;;;;;;;;5094348;28;20036;-50
2023/10/03 00:07:58;;;;;;;8.27;4.57;;;;;;;;;;5092263;28;20032;-46
2023/10/03 00:10:25;;;;;;;8.63;4.50;;;;;;;;;;5097024;28;20316;-42
2023/10/03 00:12:52;;;;;;;6.70;4.60;;;;;;;;;;5098069;28;20035;-47
2023/10/03 00:15:25;;;;;;;7.85;4.85;;;;;;;;;;5094017;28;20016;-47
2023/10/03 00:17:52;;;;;;;9.65;4.25;;;;;;;;;;5084576;28;20051;-45
2023/10/03 00:20:19;;;;;;;9.07;6.00;;;;;;;;;;5088329;28;20378;-46
2023/10/03 00:22:46;;;;;;;10.73;9.52;;;;;;;;;;5099658;28;20207;-42
2023/10/03 00:25:19;;;;;;;11.55;6.40;;;;;;;;;;5097657;28;20032;-37
2023/10/03 00:27:46;;;;;;;8.77;5.10;;;;;;;;;;5085056;28;20087;-40
2023/10/03 00:30:16;;;;;;;8.52;4.72;;;;;;;;;;5091199;28;20181;-47
2023/10/03 00:32:43;;;;;;;10.73;4.60;;;;;;;;;;5091378;28;20020;-36
2023/10/03 00:35:11;;;;;;;8.82;4.55;;;;;;;;;;5102970;28;20035;-41
2023/10/03 00:37:38;;;;;;;8.45;3.88;;;;;;;;;;5088035;28;20193;-39
2023/10/03 00:40:48;;;;;;;7.30;4.43;;;;;;;;;;5085150;28;20055;-36
2023/10/03 00:43:00;;;;;;;5.20;3.53;;;;;;;;;;5098054;28;20040;-53
2023/10/03 00:45:31;;;;;;;5.32;3.85;;;;;;;;;;5084312;28;20124;-42
2023/10/03 00:48:08;;;;;;;6.78;4.00;;;;;;;;;;5083929;28;20036;-41
2023/10/03 00:50:35;;;;;;;10.48;3.95;;;;;;;;;;5083910;28;20051;-39
2023/10/03 00:53:08;;;;;;;9.57;4.05;;;;;;;;;;5083347;28;20028;-44
2023/10/03 00:55:37;;;;;;;5.43;3.85;;;;;;;;;;5082664;28;20029;-41
2023/10/03 01:00:43;;;;;;;8.75;5.32;;;;;;;;;;5082422;28;20028;-42
2023/10/03 01:03:28;;;;;;;8.23;4.90;;;;;;;;;;5083033;28;20041;-42
2023/10/03 01:05:58;;;;;;;6.75;4.60;;;;;;;;;;5082983;28;20036;-39
2023/10/03 01:08:25;;;;;;;6.25;4.40;;;;;;;;;;5082772;28;20048;-42
2023/10/03 01:10:52;;;;;;;8.35;4.03;;;;;;;;;;5083553;28;20340;-46
2023/10/03 01:13:20;;;;;;;8.63;4.35;;;;;;;;;;5084094;28;20029;-41
2023/10/03 01:15:50;;;;;;;8.18;4.97;;;;;;;;;;5083781;28;20064;-42
2023/10/03 01:18:39;;;;;;;13.70;5.40;;;;;;;;;;5084246;28;20024;-38
2023/10/03 01:21:06;;;;;;;7.50;4.57;;;;;;;;;;5083837;28;20051;-36
2023/10/03 01:23:39;;;;;;;9.05;4.38;;;;;;;;;;5083874;28;20078;-39
2023/10/03 01:26:07;;;;;;;5.53;3.85;;;;;;;;;;5083365;28;20032;-37
2023/10/03 01:28:34;;;;;;;8.27;4.50;;;;;;;;;;5095040;28;20024;-40
2023/10/03 01:31:01;;;;;;;30.10;25.98;;;;;;;;;;5104322;28;20032;-40
2023/10/03 01:33:30;;;;;;;20.20;16.52;;;;;;;;;;5104294;28;20196;-43
2023/10/03 01:35:58;;;;;;;16.13;12.52;;;;;;;;;;5103890;28;20032;-37
2023/10/03 01:38:29;;;;;;;12.60;10.38;;;;;;;;;;5103245;28;20026;-38
2023/10/03 01:40:57;;;;;;;10.70;8.88;;;;;;;;;;5103440;28;20367;-37
2023/10/03 01:43:24;;;;;;;9.18;7.50;;;;;;;;;;5102716;28;20032;-43
2023/10/03 01:45:52;;;;;;;9.18;5.88;;;;;;;;;;5102020;28;20039;-41
2023/10/03 01:48:18;;;;;;;10.02;5.28;;;;;;;;;;5099259;28;20084;-41
2023/10/03 01:50:45;;;;;;;13.55;4.53;;;;;;;;;;5102566;28;20040;-37
2023/10/03 01:53:12;;;;;;;7.88;4.07;;;;;;;;;;5086229;28;20032;-44
2023/10/03 01:55:39;;;;;;;4.40;3.40;;;;;;;;;;5103912;28;20338;-43
2023/10/03 01:58:05;;;;;;;8.30;3.80;;;;;;;;;;5103897;28;20091;-48
2023/10/03 02:00:36;;;;;;;8.25;3.90;;;;;;;;;;5098932;28;20044;-43
2023/10/03 02:03:13;;;;;;;6.47;3.78;;;;;;;;;;5085168;28;20055;-43
2023/10/03 02:05:43;;;;;;;3.97;3.40;;;;;;;;;;5083210;28;20037;-43
2023/10/03 02:10:36;;;;;;;3.67;2.83;;;;;;;;;;5083400;28;20055;-42
2023/10/03 02:13:14;;;;;;;5.28;3.10;;;;;;;;;;5083442;28;20062;-48
2023/10/03 02:15:45;;;;;;;3.30;3.00;;;;;;;;;;5087555;28;20023;-40
2023/10/03 02:18:18;;;;;;;3.25;2.88;;;;;;;;;;5103606;28;20032;-40
2023/10/03 02:20:52;;;;;;;4.15;2.70;;;;;;;;;;5086982;28;20027;-43
2023/10/03 02:23:19;;;;;;;3.40;2.35;;;;;;;;;;5087440;28;20179;-47
2023/10/03 02:25:48;;;;;;;77.47;9.05;;;;;;;;;;5095373;28;20031;-46
2023/10/03 02:28:16;;;;;;;19.02;4.00;;;;;;;;;;5091103;28;20016;-49
2023/10/03 02:30:43;;;;;;;8.00;3.05;;;;;;;;;;5094721;28;20312;-42
2023/10/03 02:33:13;;;;;;;4.35;3.00;;;;;;;;;;5094079;28;20079;-40
2023/10/03 02:35:43;;;;;;;6.75;3.47;;;;;;;;;;5095352;28;20227;-37
2023/10/03 02:38:24;;;;;;;5.38;3.38;;;;;;;;;;5096161;28;20049;-54
2023/10/03 02:40:52;;;;;;;5.70;3.70;;;;;;;;;;5096395;28;20029;-40
2023/10/03 02:43:19;;;;;;;5.00;2.95;;;;;;;;;;5094142;28;20200;-49
2023/10/03 02:45:46;;;;;;;5.53;3.38;;;;;;;;;;5094597;28;20051;-47
2023/10/03 02:48:17;;;;;;;5.07;3.50;;;;;;;;;;5095404;28;20027;-49
2023/10/03 02:50:47;;;;;;;5.28;3.30;;;;;;;;;;5103832;28;20032;-48
2023/10/03 02:53:19;;;;;;;5.65;3.22;;;;;;;;;;5100011;28;20323;-48
2023/10/03 02:55:46;;;;;;;;;;;;;;;;;;5086731;28;20032;-52
2023/10/03 02:58:13;;;;;;;5.50;4.00;;;;;;;;;;5086207;28;19932;-45
2023/10/03 03:00:40;;;;;;;4.40;3.75;;;;;;;;;;5086579;28;20089;-45
2023/10/03 03:03:09;;;;;;;4.57;3.50;;;;;;;;;;5106089;28;20028;-45
2023/10/03 03:05:39;;;;;;;5.20;3.47;;;;;;;;;;5106327;28;20093;-43
2023/10/03 03:10:55;;;;;;;6.35;3.05;;;;;;;;;;5092315;28;20020;-48
2023/10/03 03:13:23;;;;;;;4.72;3.25;;;;;;;;;;5086116;28;20062;-49
2023/10/03 03:16:00;;;;;;;6.00;3.20;;;;;;;;;;5085877;28;20099;-45
2023/10/03 03:18:31;;;;;;;5.85;3.22;;;;;;;;;;5085822;28;20361;-43
2023/10/03 03:20:58;;;;;;;5.38;3.40;;;;;;;;;;5091361;28;20332;-44
2023/10/03 03:23:35;;;;;;;5.05;3.30;;;;;;;;;;5085928;28;20037;-42
2023/10/03 03:26:18;;;;;;;4.13;3.35;;;;;;;;;;5092219;28;20217;-44
2023/10/03 03:28:49;;;;;;;7.20;3.70;;;;;;;;;;5085991;28;20032;-46
2023/10/03 03:31:26;;;;;;;5.50;3.50;;;;;;;;;;5085311;28;20043;-44
2023/10/03 03:33:56;;;;;;;4.88;3.33;;;;;;;;;;5086173;28;20028;-48
2023/10/03 03:36:24;;;;;;;5.07;3.38;;;;;;;;;;5085657;28;20229;-50
2023/10/03 03:38:54;;;;;;;3.63;3.00;;;;;;;;;;5086028;28;20028;-49
2023/10/03 03:41:21;;;;;;;5.25;3.08;;;;;;;;;;5085026;28;20308;-44
2023/10/03 03:43:49;;;;;;;5.78;3.20;;;;;;;;;;5086024;28;20204;-45
2023/10/03 03:46:18;;;;;;;4.68;3.25;;;;;;;;;;5085455;28;20032;-46
2023/10/03 03:48:45;;;;;;;5.10;3.97;;;;;;;;;;5084868;28;20016;-47
2023/10/03 03:51:12;;;;;;;5.30;3.70;;;;;;;;;;5085153;28;20032;-50
2023/10/03 03:53:41;;;;;;;4.32;3.50;;;;;;;;;;5095594;28;20288;-52
2023/10/03 03:56:08;;;;;;;4.82;3.90;;;;;;;;;;5085077;28;20212;-43
2023/10/03 03:58:37;;;;;;;4.70;3.45;;;;;;;;;;5085459;28;20291;-47
2023/10/03 04:01:11;;;;;;;6.75;3.47;;;;;;;;;;5085168;28;20039;-43
2023/10/03 04:03:38;;;;;;;4.85;3.65;;;;;;;;;;5084954;28;20028;-44
2023/10/03 04:06:05;;;;;;;7.05;3.45;;;;;;;;;;5084949;28;20068;-46
2023/10/03 04:08:32;;;;;;;5.50;3.55;;;;;;;;;;5085343;28;20028;-45
2023/10/03 04:11:01;;;;;;;3.90;3.50;;;;;;;;;;5084887;28;20253;-44
2023/10/03 04:13:29;;;;;;;6.20;3.40;;;;;;;;;;5085203;28;20046;-39
2023/10/03 04:16:01;;;;;;;5.50;3.63;;;;;;;;;;5084853;28;20024;-42
2023/10/03 04:18:29;;;;;;;5.93;3.50;;;;;;;;;;5085238;28;20024;-49
2023/10/03 04:20:55;;;;;;;5.57;3.40;;;;;;;;;;5084685;28;20032;-50
2023/10/03 04:23:22;;;;;;;3.78;3.17;;;;;;;;;;5084923;28;20024;-52
2023/10/03 04:25:49;;;;;;;5.30;3.20;;;;;;;;;;5084921;28;20044;-43
2023/10/03 04:28:16;;;;;;;4.35;2.90;;;;;;;;;;5084541;28;20034;-45
2023/10/03 04:30:43;;;;;;;4.93;3.10;;;;;;;;;;5084486;28;20027;-45
2023/10/03 04:33:10;;;;;;;4.30;3.13;;;;;;;;;;5084582;28;20031;-47
2023/10/03 04:35:36;;;;;;;4.68;2.90;;;;;;;;;;5084343;28;20263;-45
2023/10/03 04:38:04;;;;;;;5.95;3.10;;;;;;;;;;5084637;28;20020;-46
2023/10/03 04:40:34;;;;;;;3.97;3.20;;;;;;;;;;5084623;28;20032;-48
2023/10/03 04:43:07;;;;;;;5.15;3.53;;;;;;;;;;5088499;28;20100;-50
2023/10/03 04:45:36;;;;;;;3.80;3.40;;;;;;;;;;5093606;28;20039;-47
2023/10/03 04:48:03;;;;;;;3.80;3.10;;;;;;;;;;5093422;28;20029;-42
2023/10/03 04:50:31;;;;;;;4.97;3.13;;;;;;;;;;5084199;28;20023;-47
2023/10/03 04:52:59;;;;;;;4.75;3.03;;;;;;;;;;5084197;28;20032;-46
2023/10/03 04:55:26;;;;;;;4.25;3.05;;;;;;;;;;5092510;28;20284;-47
2023/10/03 04:57:53;;;;;;;5.88;3.03;;;;;;;;;;5104507;28;20016;-52
2023/10/03 05:00:21;;;;;;;4.65;3.15;;;;;;;;;;5100980;28;20363;-49
2023/10/03 05:02:49;;;;;;;3.95;3.10;;;;;;;;;;5104300;28;20299;-45
2023/10/03 05:05:20;;;;;;;3.83;2.78;;;;;;;;;;5103403;28;20145;-48
2023/10/03 05:07:54;;;;;;;6.70;3.33;;;;;;;;;;5104265;28;20307;-46
2023/10/03 05:10:21;;;;;;;5.13;3.00;;;;;;;;;;5104303;28;20235;-44
2023/10/03 05:12:50;;;;;;;5.03;2.90;;;;;;;;;;5104368;28;20015;-45
2023/10/03 05:15:17;;;;;;;3.78;2.58;;;;;;;;;;5103956;28;20036;-43
2023/10/03 05:17:45;;;;;;;6.32;3.00;;;;;;;;;;5104391;28;20079;-45
2023/10/03 05:20:20;;;;;;;4.57;2.75;;;;;;;;;;5104170;28;20046;-48
2023/10/03 05:22:47;;;;;;;5.10;2.95;;;;;;;;;;5104148;28;20039;-44
2023/10/03 05:25:17;;;;;;;5.30;2.80;;;;;;;;;;5104063;28;20020;-44
2023/10/03 05:27:44;;;;;;;3.50;3.15;;;;;;;;;;5103930;28;20051;-45
2023/10/03 05:30:14;;;;;;;4.00;2.90;;;;;;;;;;5103934;28;20058;-48
2023/10/03 05:32:43;;;;;;;4.38;2.85;;;;;;;;;;5104285;28;20027;-48
2023/10/03 05:35:12;;;;;;;4.13;3.03;;;;;;;;;;5103856;28;20039;-48
2023/10/03 05:37:41;;;;;;;4.15;2.90;;;;;;;;;;5097778;28;20028;-52
2023/10/03 05:40:11;;;;;;;4.57;3.10;;;;;;;;;;5092298;28;20025;-44
2023/10/03 05:42:41;;;;;;;6.40;3.22;;;;;;;;;;5085310;28;20028;-47
2023/10/03 05:45:10;;;;;;;5.07;3.00;;;;;;;;;;5089950;28;20047;-44
2023/10/03 05:47:37;;;;;;;3.28;2.55;;;;;;;;;;5083439;28;20024;-43
2023/10/03 05:50:04;;;;;;;4.28;2.85;;;;;;;;;;5083510;28;20062;-48
2023/10/03 05:52:31;;;;;;;5.13;2.40;;;;;;;;;;5083517;28;20217;-40
2023/10/03 05:54:59;;;;;;;3.65;2.65;;;;;;;;;;5086522;28;20032;-39
2023/10/03 05:57:26;;;;;;;3.38;2.58;;;;;;;;;;5087688;28;20040;-43
2023/10/03 05:59:52;;;;;;;4.25;2.75;;;;;;;;;;5087835;28;20126;-41
2023/10/03 06:02:19;;;;;;;3.55;2.78;;;;;;;;;;5096022;28;20133;-47
2023/10/03 06:04:46;;;;;;;4.15;2.80;;;;;;;;;;5107465;28;20056;-46
2023/10/03 06:07:13;;;;;;;4.03;2.72;;;;;;;;;;5107548;28;20301;-43
2023/10/03 06:09:40;;;;;;;4.03;2.63;;;;;;;;;;5107563;28;20035;-48
2023/10/03 06:12:06;;;;;;;3.35;2.45;;;;;;;;;;5107545;28;20204;-48
2023/10/03 06:14:33;;;;;;;2.67;2.40;;;;;;;;;;5107950;28;20020;-48
2023/10/03 06:17:00;;;;;;;3.38;2.45;;;;;;;;;;5107423;28;20314;-53
2023/10/03 06:19:26;;;;;;;4.65;2.78;;;;;;;;;;5107806;28;20042;-49
2023/10/03 06:21:53;;;;;;;6.35;3.28;;;;;;;;;;5107331;28;20027;-48
2023/10/03 06:24:20;;;;;;;2.95;2.65;;;;;;;;;;5107659;28;20023;-48
2023/10/03 06:26:47;;;;;;;4.13;2.75;;;;;;;;;;5107178;28;20043;-49
2023/10/03 06:29:15;;;;;;;4.93;2.35;;;;;;;;;;5107623;28;20034;-53
2023/10/03 06:31:42;;;;;;;4.55;3.30;;;;;;;;;;5102535;28;20033;-44
2023/10/03 06:34:08;;;;;;;4.43;2.92;;;;;;;;;;5087088;28;20339;-45
2023/10/03 06:36:35;;;;;;;4.28;2.88;;;;;;;;;;5086735;28;20062;-46
2023/10/03 06:39:04;;;;;;;3.65;2.90;;;;;;;;;;5087130;28;20087;-50
2023/10/03 06:41:31;;;;;;;6.22;3.15;;;;;;;;;;5086465;28;20039;-46
2023/10/03 06:43:58;;;;;;;4.97;3.08;;;;;;;;;;5086980;28;20016;-49
2023/10/03 06:46:25;;;;;;;7.55;3.22;;;;;;;;;;5086449;28;20024;-51
2023/10/03 06:48:53;;;;;;;3.45;2.97;;;;;;;;;;5086784;28;20339;-46
2023/10/03 06:51:20;;;;;;;6.88;3.10;;;;;;;;;;5086519;28;20024;-44
2023/10/03 06:53:47;;;;;;;4.97;3.15;;;;;;;;;;5086762;28;20181;-44
2023/10/03 06:56:15;;;;;;;4.28;3.10;;;;;;;;;;5086315;28;20251;-46
2023/10/03 06:58:41;;;;;;;6.47;3.30;;;;;;;;;;5086648;28;20024;-50
2023/10/03 07:01:11;;;;;;;6.45;2.70;;;;;;;;;;5089526;28;20036;-48
2023/10/03 07:03:40;;;;;;;7.43;3.20;;;;;;;;;;5106381;28;20040;-50
2023/10/03 07:06:07;;;;;;;5.70;2.97;;;;;;;;;;5105515;28;20040;-46
2023/10/03 07:08:35;;;;;;;5.07;3.35;;;;;;;;;;5106654;28;20046;-47
2023/10/03 07:11:02;;;;;;;4.88;2.92;;;;;;;;;;5106303;28;20032;-46
2023/10/03 07:13:29;;;;;;;5.72;2.90;;;;;;;;;;5106598;28;20020;-48
2023/10/03 07:15:58;;;;;;;6.13;3.28;;;;;;;;;;5106214;28;20028;-45
2023/10/03 07:18:25;;;;;;;4.57;3.28;;;;;;;;;;5106493;28;20032;-40
2023/10/03 07:20:55;;;;;;;4.32;2.80;;;;;;;;;;5106295;28;20028;-45
2023/10/03 07:23:23;;;;;;;3.97;2.80;;;;;;;;;;5106308;28;20304;-48
2023/10/03 07:25:50;;;;;;;4.40;2.72;;;;;;;;;;5106072;28;20217;-46
2023/10/03 07:28:16;;;;;;;4.75;3.03;;;;;;;;;;5106407;28;20239;-48
2023/10/03 07:30:43;;;;;;;5.78;2.95;;;;;;;;;;5106068;28;20028;-43
2023/10/03 07:33:11;;;;;;;3.47;2.60;;;;;;;;;;5105882;28;20087;-52
2023/10/03 07:35:42;;;;;;;4.95;3.35;;;;;;;;;;5105919;28;20019;-50
2023/10/03 07:38:12;;;;;;;3.25;2.80;;;;;;;;;;5105963;28;20024;-47
2023/10/03 07:40:39;;;;;;;6.22;3.40;;;;;;;;;;5105832;28;20095;-47
2023/10/03 07:43:09;;;;;;;4.25;2.50;;;;;;;;;;5106177;28;20335;-47
2023/10/03 07:45:40;;;;;;;7.05;3.05;;;;;;;;;;5105571;28;20358;-42
2023/10/03 07:48:09;;;;;;;6.28;3.08;;;;;;;;;;5105891;28;20304;-44
2023/10/03 07:50:40;;;;;;;4.65;2.70;;;;;;;;;;5105587;28;20091;-43
2023/10/03 07:53:17;;;;;;;5.30;2.90;;;;;;;;;;5105631;28;20326;-46
2023/10/03 07:55:43;;;;;;;3.78;2.65;;;;;;;;;;5105526;28;20028;-46
2023/10/03 07:58:14;;;;;;;4.60;2.70;;;;;;;;;;5105628;28;20039;-44
2023/10/03 08:00:45;;;;;;;4.28;2.72;;;;;;;;;;5105464;28;20028;-41
2023/10/03 08:03:14;;;;;;;6.43;3.20;;;;;;;;;;5105496;28;20129;-43
2023/10/03 08:05:41;;;;;;;7.03;2.95;;;;;;;;;;5105095;28;20066;-42
2023/10/03 08:08:08;;;;;;;3.85;3.08;;;;;;;;;;5105456;28;20012;-47
2023/10/03 08:10:35;;;;;;;4.10;2.75;;;;;;;;;;5105264;28;20024;-39
2023/10/03 08:13:03;;;;;;;4.50;2.78;;;;;;;;;;5105252;28;20031;-41
2023/10/03 08:15:33;;;;;;;8.50;3.25;;;;;;;;;;5105091;28;20079;-41
2023/10/03 08:18:00;;;;;;;4.03;2.78;;;;;;;;;;5105151;28;20195;-44
2023/10/03 08:20:29;;;;;;;3.78;2.60;;;;;;;;;;5104913;28;20308;-51
2023/10/03 08:22:56;;;;;;;4.00;2.67;;;;;;;;;;5105180;28;20024;-46
2023/10/03 08:25:24;;;;;;;4.38;2.65;;;;;;;;;;5104973;28;20247;-47
2023/10/03 08:27:51;;;;;;;3.92;2.45;;;;;;;;;;5104895;28;20204;-44
2023/10/03 08:30:38;;;;;;;6.00;2.70;;;;;;;;;;5105202;28;20023;-44
2023/10/03 08:33:05;;;;;;;4.60;2.65;;;;;;;;;;5104922;28;20169;-45
2023/10/03 08:35:34;;;;;;;5.15;3.08;;;;;;;;;;5104747;28;20064;-50
2023/10/03 08:38:04;;;;;;;5.07;2.80;;;;;;;;;;5104947;28;20300;-46
2023/10/03 08:40:36;;;;;;;5.32;2.30;;;;;;;;;;5104730;28;20036;-46
2023/10/03 08:43:04;;;;;;;4.65;2.70;;;;;;;;;;5104874;28;20035;-44
2023/10/03 08:45:34;;;;;;;5.40;2.65;;;;;;;;;;5104495;28;20032;-47
2023/10/03 08:48:06;;;;;;;2.88;2.35;;;;;;;;;;5104707;28;20028;-46
2023/10/03 08:50:46;;;;;;;8.87;2.97;;;;;;;;;;5104608;28;20023;-45
2023/10/03 08:53:17;;;;;;;7.13;2.70;;;;;;;;;;5104679;28;20208;-45
2023/10/03 08:55:47;;;;;;;6.38;2.60;;;;;;;;;;5104807;28;20036;-43
2023/10/03 08:58:19;;;;;;;8.02;2.53;;;;;;;;;;5104678;28;20031;-45
2023/10/03 09:00:45;;;;;;;7.20;2.97;;;;;;;;;;5104490;28;20087;-47
2023/10/03 09:03:13;;;;;;;3.90;2.53;;;;;;;;;;5104430;28;20028;-49
2023/10/03 09:05:41;;;;;;;5.03;2.92;;;;;;;;;;5104104;28;20060;-47
2023/10/03 09:08:14;;;;;;;5.63;2.92;;;;;;;;;;5104613;28;20204;-51
2023/10/03 09:10:51;;;;;;;6.28;3.25;;;;;;;;;;5104313;28;20031;-48
2023/10/03 09:13:25;;;;;;;4.30;2.85;;;;;;;;;;5104538;28;20344;-48
2023/10/03 09:16:07;;;;;;;5.18;3.10;;;;;;;;;;5104133;28;20036;-49
2023/10/03 11:06:25;;;;;;;7.72;3.55;;;;;;;;;;5104387;28;20047;-50
2023/10/03 11:08:53;;;;;;;9.40;3.45;;;;;;;;;;5106693;28;20035;-45
2023/10/03 11:11:20;;;;;;;11.85;4.40;;;;;;;;;;5106422;28;20084;-49
2023/10/03 11:13:50;;;;;;;13.85;5.22;;;;;;;;;;5106762;28;20318;-46
2023/10/03 11:16:25;;;;;;;14.40;5.32;;;;;;;;;;5106468;28;20036;-43
2023/10/03 11:18:54;;;;;;;10.70;5.70;;;;;;;;;;5106636;28;20339;-46
2023/10/03 11:21:20;;;;;;;13.40;6.07;;;;;;;;;;5106113;28;20036;-45
2023/10/03 11:24:05;;;;;;;8.98;4.18;;;;;;;;;;5106546;28;20227;-48
2023/10/03 11:26:49;;;;;;;13.30;4.13;;;;;;;;;;5105865;28;20032;-47
2023/10/03 11:29:34;;;;;;;9.43;4.47;;;;;;;;;;5106493;28;20095;-40
2023/10/03 11:32:01;;;;;;;8.63;4.10;;;;;;;;;;5105940;28;20035;-39
2023/10/03 11:34:34;;;;;;;12.02;4.40;;;;;;;;;;5106553;28;20038;-38
2023/10/03 11:37:04;;;;;;;15.93;5.68;;;;;;;;;;5105980;28;20077;-44
2023/10/03 11:39:38;;;;;;;9.63;4.60;;;;;;;;;;5105871;28;20440;-40
2023/10/03 11:42:09;;;;;;;8.05;4.80;;;;;;;;;;5104298;28;20028;-36
2023/10/03 11:44:36;;;;;;;9.52;4.50;;;;;;;;;;5104266;28;20027;-35
2023/10/03 11:47:03;;;;;;;7.78;4.35;;;;;;;;;;5104740;28;20055;-41
2023/10/03 11:49:30;;;;;;;13.68;4.70;;;;;;;;;;5105190;28;20120;-45
2023/10/03 11:51:57;;;;;;;37.50;5.47;;;;;;;;;;5105140;28;20363;-43
2023/10/03 11:54:23;;;;;;;22.60;4.90;;;;;;;;;;5106187;28;20032;-40
2023/10/03 11:56:50;;;;;;;16.25;4.78;;;;;;;;;;5105550;28;20320;-37
2023/10/03 11:59:17;;;;;;;11.88;4.38;;;;;;;;;;5105840;28;20020;-41
2023/10/03 12:01:56;;;;;;;12.70;4.20;;;;;;;;;;5105529;28;20333;-41
2023/10/03 12:04:23;;;;;;;16.95;5.15;;;;;;;;;;5105592;28;20079;-49
2023/10/03 12:06:50;;;;;;;13.18;4.60;;;;;;;;;;5105379;28;20032;-46
2023/10/03 12:09:17;;;;;;;18.50;4.78;;;;;;;;;;5105824;28;20292;-45
2023/10/03 12:11:45;;;;;;;20.83;4.60;;;;;;;;;;5105395;28;20255;-45
2023/10/03 12:14:12;;;;;;;18.45;5.07;;;;;;;;;;5105777;28;20339;-45
2023/10/03 12:16:38;;;;;;;21.17;6.68;;;;;;;;;;5105207;28;20043;-46
2023/10/03 12:19:06;;;;;;;50.65;11.38;;;;;;;;;;5105711;28;20026;-47
2023/10/03 12:21:33;;;;;;;34.20;7.22;;;;;;;;;;5105022;28;20028;-45
2023/10/03 12:24:00;;;;;;;35.35;7.45;;;;;;;;;;5105547;28;20087;-45
2023/10/03 12:26:27;;;;;;;32.67;6.72;;;;;;;;;;5105336;28;20032;-45
2023/10/03 12:28:54;;;;;;;37.83;5.93;;;;;;;;;;5105293;28;20091;-44
2023/10/03 12:31:27;;;;;;;52.85;8.77;;;;;;;;;;5104975;28;20306;-46
2023/10/03 12:33:55;;;;;;;45.85;7.53;;;;;;;;;;5105171;28;20016;-45
2023/10/03 12:36:22;;;;;;;36.35;6.60;;;;;;;;;;5104853;28;20038;-44
2023/10/03 12:38:48;;;;;;;29.40;5.95;;;;;;;;;;5105125;28;20023;-50
2023/10/03 12:41:15;;;;;;;21.38;5.75;;;;;;;;;;5104867;28;20079;-47
2023/10/03 12:43:46;;;;;;;25.73;5.95;;;;;;;;;;5105044;28;20107;-44
2023/10/03 12:46:14;;;;;;;18.92;5.13;;;;;;;;;;5104674;28;20028;-47
2023/10/03 12:48:40;;;;;;;22.70;5.88;;;;;;;;;;5104833;28;20016;-44
2023/10/03 12:51:08;;;;;;;19.15;4.80;;;;;;;;;;5104592;28;20032;-46
2023/10/03 12:53:38;;;;;;;18.35;4.85;;;;;;;;;;5104827;28;20024;-45
2023/10/03 12:56:08;;;;;;;21.17;5.47;;;;;;;;;;5104540;28;20065;-45
2023/10/03 12:58:38;;;;;;;18.50;4.90;;;;;;;;;;5104710;28;20028;-46
2023/10/03 13:01:05;;;;;;;17.58;4.43;;;;;;;;;;5104747;28;20028;-44
2023/10/03 13:03:32;;;;;;;18.23;4.30;;;;;;;;;;5103787;28;20069;-44
2023/10/03 13:06:00;;;;;;;13.38;4.50;;;;;;;;;;5104144;28;20048;-45
2023/10/03 13:08:27;;;;;;;15.18;4.68;;;;;;;;;;5104618;28;20328;-43
2023/10/03 13:10:54;;;;;;;7.50;3.95;;;;;;;;;;5104160;28;20105;-46
2023/10/03 13:13:24;;;;;;;9.75;4.20;;;;;;;;;;5104578;28;20020;-43
2023/10/03 13:15:54;;;;;;;14.93;4.40;;;;;;;;;;5104191;28;20087;-48
2023/10/03 13:18:23;;;;;;;10.27;4.38;;;;;;;;;;5103964;28;20224;-44
2023/10/03 13:20:53;;;;;;;7.55;4.32;;;;;;;;;;5104151;28;20091;-46
2023/10/03 13:23:21;;;;;;;8.52;4.47;;;;;;;;;;5104210;28;20032;-44
2023/10/03 13:25:49;;;;;;;12.35;4.30;;;;;;;;;;5103969;28;20036;-45
2023/10/03 13:28:16;;;;;;;9.63;4.50;;;;;;;;;;5104209;28;20071;-37
2023/10/03 13:30:45;;;;;;;13.23;5.15;;;;;;;;;;5104034;28;20035;-40
2023/10/03 13:33:12;;;;;;;13.52;5.10;;;;;;;;;;5104304;28;20028;-39
2023/10/03 13:35:39;;;;;;;25.88;5.53;;;;;;;;;;5103884;28;20266;-40
2023/10/03 13:38:08;;;;;;;30.23;6.53;;;;;;;;;;5104093;28;20055;-40
2023/10/03 13:40:35;;;;;;;34.05;6.35;;;;;;;;;;5104191;28;20324;-40
2023/10/03 13:43:04;;;;;;;37.75;6.95;;;;;;;;;;5104052;28;20319;-40
2023/10/03 13:45:30;;;;;;;29.67;5.93;;;;;;;;;;5103546;28;20039;-42
2023/10/03 13:47:59;;;;;;;24.33;6.32;;;;;;;;;;5103927;28;20028;-50
2023/10/03 13:50:26;;;;;;;32.63;6.43;;;;;;;;;;5103838;28;20214;-43
2023/10/03 13:52:55;;;;;;;15.07;5.30;;;;;;;;;;5103854;28;20020;-44
2023/10/03 13:55:25;;;;;;;21.55;5.95;;;;;;;;;;5103837;28;20085;-41
2023/10/03 13:57:55;;;;;;;21.83;6.43;;;;;;;;;;5104076;28;20047;-43
2023/10/03 14:00:23;;;;;;;13.55;5.78;;;;;;;;;;5104029;28;20186;-40
2023/10/03 14:02:50;;;;;;;19.20;5.78;;;;;;;;;;5103709;28;20093;-37
2023/10/03 14:05:19;;;;;;;9.85;6.03;;;;;;;;;;5103474;28;20083;-43
2023/10/03 14:07:47;;;;;;;12.10;5.97;;;;;;;;;;5103962;28;20197;-38
2023/10/03 14:10:16;;;;;;;12.13;5.93;;;;;;;;;;5103683;28;20341;-39
2023/10/03 14:12:43;;;;;;;12.23;6.10;;;;;;;;;;5103899;28;20289;-47
2023/10/03 14:15:10;;;;;;;12.50;6.13;;;;;;;;;;5105138;28;20043;-44
2023/10/03 14:17:37;;;;;;;12.85;5.68;;;;;;;;;;5107540;28;20052;-38
2023/10/03 14:20:05;;;;;;;10.50;5.63;;;;;;;;;;5107450;28;20087;-40
2023/10/03 14:22:32;;;;;;;15.13;5.68;;;;;;;;;;5107389;28;20024;-46
2023/10/03 14:24:58;;;;;;;12.23;5.88;;;;;;;;;;5107274;28;20028;-52
2023/10/03 14:27:25;;;;;;;8.43;5.57;;;;;;;;;;5107369;28;20016;-41
2023/10/03 14:29:52;;;;;;;12.35;5.47;;;;;;;;;;5107269;28;20075;-45
2023/10/03 14:32:20;;;;;;;11.68;5.65;;;;;;;;;;5107243;28;20028;-38
2023/10/03 14:34:48;;;;;;;16.27;6.18;;;;;;;;;;5107243;28;20024;-46
2023/10/03 14:37:14;;;;;;;16.50;6.10;;;;;;;;;;5107059;28;20254;-36
2023/10/03 14:39:41;;;;;;;19.50;6.20;;;;;;;;;;5107165;28;20032;-39
2023/10/03 14:42:09;;;;;;;36.35;7.32;;;;;;;;;;5107149;28;20043;-45
2023/10/03 14:44:39;;;;;;;26.63;6.53;;;;;;;;;;5106887;28;20040;-37
2023/10/03 14:47:06;;;;;;;25.65;6.78;;;;;;;;;;5107117;28;20035;-40
2023/10/03 14:49:32;;;;;;;33.53;7.28;;;;;;;;;;5107404;28;20307;-35
2023/10/03 14:51:59;;;;;;;22.88;7.18;;;;;;;;;;5106795;28;20032;-42
2023/10/03 14:54:26;;;;;;;20.83;6.70;;;;;;;;;;5107217;28;20070;-44
2023/10/03 14:56:53;;;;;;;24.35;6.40;;;;;;;;;;5107063;28;20016;-36
2023/10/03 14:59:20;;;;;;;24.15;6.70;;;;;;;;;;5107128;28;20079;-39
2023/10/03 15:01:46;;;;;;;27.20;7.05;;;;;;;;;;5106656;28;20035;-39
2023/10/03 15:04:14;;;;;;;30.15;7.32;;;;;;;;;;5106950;28;20016;-38
2023/10/03 15:06:42;;;;;;;31.85;7.63;;;;;;;;;;5106410;28;20032;-45
2023/10/03 15:09:09;;;;;;;26.13;7.45;;;;;;;;;;5106890;28;20039;-38
2023/10/03 15:11:35;;;;;;;20.50;6.45;;;;;;;;;;5106515;28;20019;-46
2023/10/03 15:14:03;;;;;;;20.23;6.82;;;;;;;;;;5106745;28;20012;-44
2023/10/03 15:16:32;;;;;;;23.98;6.18;;;;;;;;;;5106320;28;20062;-50
2023/10/03 15:19:05;;;;;;;26.45;6.85;;;;;;;;;;5106585;28;20214;-53
2023/10/03 15:24:25;;;;;;;20.45;5.97;;;;;;;;;;5106923;28;20141;-39
2023/10/03 15:26:54;;;;;;;21.02;6.22;;;;;;;;;;5105553;28;20087;-39
2023/10/03 15:29:20;;;;;;;30.17;6.30;;;;;;;;;;5106571;28;20023;-44
2023/10/03 15:31:47;;;;;;;20.35;5.88;;;;;;;;;;5106250;28;20299;-43
2023/10/03 15:34:27;;;;;;;16.73;5.38;;;;;;;;;;5106539;28;20015;-47
2023/10/03 15:36:54;;;;;;;25.35;6.00;;;;;;;;;;5105995;28;20445;-44
2023/10/03 15:39:22;;;;;;;15.07;6.47;;;;;;;;;;5106309;28;20020;-39
2023/10/03 15:41:49;;;;;;;33.00;7.13;;;;;;;;;;5105991;28;20038;-44
2023/10/03 15:44:18;;;;;;;19.83;6.18;;;;;;;;;;5106382;28;20032;-38
2023/10/03 15:46:50;;;;;;;16.42;6.00;;;;;;;;;;5105718;28;20078;-46
2023/10/03 15:49:20;;;;;;;19.48;5.68;;;;;;;;;;5105687;28;20221;-45
2023/10/03 15:51:48;;;;;;;13.43;5.28;;;;;;;;;;5105581;28;20032;-42
2023/10/03 15:54:15;;;;;;;22.35;6.05;;;;;;;;;;5106115;28;20047;-47
2023/10/03 15:56:42;;;;;;;14.20;6.38;;;;;;;;;;5105690;28;20036;-45
2023/10/03 15:59:10;;;;;;;14.43;5.35;;;;;;;;;;5105830;28;20052;-42
2023/10/03 16:01:37;;;;;;;14.40;5.68;;;;;;;;;;5105630;28;20103;-39
2023/10/03 16:04:05;;;;;;;17.05;5.80;;;;;;;;;;5105898;28;20016;-44
2023/10/03 16:06:33;;;;;;;18.90;5.43;;;;;;;;;;5105053;28;20036;-39
2023/10/03 16:08:59;;;;;;;29.00;6.70;;;;;;;;;;5105744;28;20207;-47
2023/10/03 16:11:26;;;;;;;16.38;5.55;;;;;;;;;;5105526;28;20020;-45
2023/10/03 16:13:53;;;;;;;12.88;5.13;;;;;;;;;;5105501;28;20020;-37
2023/10/03 16:16:20;;;;;;;11.20;4.60;;;;;;;;;;5105053;28;20028;-38
2023/10/03 16:18:49;;;;;;;12.88;5.43;;;;;;;;;;5105498;28;20043;-44
2023/10/03 16:21:16;;;;;;;9.10;5.05;;;;;;;;;;5104790;28;20038;-38
2023/10/03 16:23:43;;;;;;;6.88;4.55;;;;;;;;;;5105288;28;20087;-40
2023/10/03 16:26:10;;;;;;;9.38;5.00;;;;;;;;;;5105025;28;20043;-40
2023/10/03 16:28:37;;;;;;;15.35;4.78;;;;;;;;;;5105174;28;20307;-38
2023/10/03 16:31:07;;;;;;;9.98;5.03;;;;;;;;;;5104897;28;20036;-45
2023/10/03 16:33:34;;;;;;;11.35;4.47;;;;;;;;;;5104788;28;20015;-40
2023/10/03 16:36:01;;;;;;;7.93;4.28;;;;;;;;;;5104632;28;20032;-39
2023/10/03 16:38:28;;;;;;;10.43;4.88;;;;;;;;;;5105022;28;20216;-39
2023/10/03 16:40:56;;;;;;;15.60;4.95;;;;;;;;;;5104911;28;20087;-38
2023/10/03 16:43:23;;;;;;;13.57;4.90;;;;;;;;;;5104865;28;20035;-35
2023/10/03 16:45:50;;;;;;;20.50;5.20;;;;;;;;;;5104730;28;20043;-45